sensor_id;sensor_type;location;lat;lon;timestamp;P1;durP1;ratioP1;P2;durP2;ratioP2
19171;SDS011;9718;52.200;21.052;2022-12-18T00:01:25;39.03;;;17.40;;
19171;SDS011;9718;52.200;21.052;2022-12-18T00:04:01;25.40;;;11.33;;
19171;SDS011;9718;52.200;21.052;2022-12-18T00:06:34;27.70;;;11.70;;
19171;SDS011;9718;52.200;21.052;2022-12-18T00:09:02;29.93;;;13.33;;
19171;SDS011;9718;52.200;21.052;2022-12-18T00:11:30;29.40;;;12.93;;
19171;SDS011;9718;52.200;21.052;2022-12-18T00:13:58;33.97;;;13.03;;
19171;SDS011;9718;52.200;21.052;2022-12-18T00:16:26;28.60;;;11.80;;
19171;SDS011;9718;52.200;21.052;2022-12-18T00:18:55;36.10;;;15.73;;
19171;SDS011;9718;52.200;21.052;2022-12-18T00:21:23;26.93;;;11.00;;
19171;SDS011;9718;52.200;21.052;2022-12-18T00:23:51;28.43;;;11.77;;
19171;SDS011;9718;52.200;21.052;2022-12-18T00:26:28;37.13;;;16.60;;
19171;SDS011;9718;52.200;21.052;2022-12-18T00:29:07;30.63;;;12.97;;
19171;SDS011;9718;52.200;21.052;2022-12-18T00:31:40;32.77;;;14.10;;
19171;SDS011;9718;52.200;21.052;2022-12-18T00:34:11;35.73;;;13.77;;
19171;SDS011;9718;52.200;21.052;2022-12-18T00:36:40;33.17;;;14.93;;
19171;SDS011;9718;52.200;21.052;2022-12-18T00:39:08;30.20;;;12.47;;
19171;SDS011;9718;52.200;21.052;2022-12-18T00:41:36;34.93;;;15.00;;
19171;SDS011;9718;52.200;21.052;2022-12-18T00:44:22;31.70;;;12.83;;
19171;SDS011;9718;52.200;21.052;2022-12-18T00:46:49;33.93;;;14.43;;
19171;SDS011;9718;52.200;21.052;2022-12-18T00:49:17;31.97;;;12.53;;
19171;SDS011;9718;52.200;21.052;2022-12-18T00:51:45;30.53;;;13.83;;
19171;SDS011;9718;52.200;21.052;2022-12-18T00:54:13;30.77;;;12.87;;
19171;SDS011;9718;52.200;21.052;2022-12-18T00:56:40;29.30;;;13.13;;
19171;SDS011;9718;52.200;21.052;2022-12-18T00:59:15;32.80;;;12.47;;
19171;SDS011;9718;52.200;21.052;2022-12-18T01:01:44;34.40;;;15.70;;
19171;SDS011;9718;52.200;21.052;2022-12-18T01:04:12;36.53;;;14.53;;
19171;SDS011;9718;52.200;21.052;2022-12-18T01:06:39;33.87;;;15.03;;
19171;SDS011;9718;52.200;21.052;2022-12-18T01:09:07;38.00;;;15.33;;
19171;SDS011;9718;52.200;21.052;2022-12-18T01:11:34;33.13;;;13.13;;
19171;SDS011;9718;52.200;21.052;2022-12-18T01:14:01;30.37;;;12.97;;
19171;SDS011;9718;52.200;21.052;2022-12-18T01:16:28;26.17;;;12.17;;
19171;SDS011;9718;52.200;21.052;2022-12-18T01:18:55;35.03;;;14.30;;
19171;SDS011;9718;52.200;21.052;2022-12-18T01:21:23;39.13;;;12.77;;
19171;SDS011;9718;52.200;21.052;2022-12-18T01:23:51;30.63;;;12.60;;
19171;SDS011;9718;52.200;21.052;2022-12-18T01:26:19;29.37;;;12.07;;
19171;SDS011;9718;52.200;21.052;2022-12-18T01:28:47;29.13;;;11.40;;
19171;SDS011;9718;52.200;21.052;2022-12-18T01:31:18;24.97;;;10.80;;
19171;SDS011;9718;52.200;21.052;2022-12-18T01:33:46;33.43;;;13.43;;
19171;SDS011;9718;52.200;21.052;2022-12-18T01:36:18;23.90;;;11.37;;
19171;SDS011;9718;52.200;21.052;2022-12-18T01:38:50;36.67;;;14.90;;
19171;SDS011;9718;52.200;21.052;2022-12-18T01:41:19;33.23;;;13.53;;
19171;SDS011;9718;52.200;21.052;2022-12-18T01:43:50;31.50;;;14.03;;
19171;SDS011;9718;52.200;21.052;2022-12-18T01:46:18;33.10;;;14.37;;
19171;SDS011;9718;52.200;21.052;2022-12-18T01:48:47;33.97;;;14.03;;
19171;SDS011;9718;52.200;21.052;2022-12-18T01:51:17;34.37;;;14.43;;
19171;SDS011;9718;52.200;21.052;2022-12-18T01:53:45;34.10;;;15.17;;
19171;SDS011;9718;52.200;21.052;2022-12-18T01:56:16;28.63;;;13.60;;
19171;SDS011;9718;52.200;21.052;2022-12-18T01:58:50;22.90;;;10.63;;
19171;SDS011;9718;52.200;21.052;2022-12-18T02:01:28;28.20;;;11.83;;
19171;SDS011;9718;52.200;21.052;2022-12-18T02:04:14;35.83;;;15.70;;
19171;SDS011;9718;52.200;21.052;2022-12-18T02:06:54;32.97;;;14.23;;
19171;SDS011;9718;52.200;21.052;2022-12-18T02:09:47;27.13;;;12.77;;
19171;SDS011;9718;52.200;21.052;2022-12-18T02:12:28;32.43;;;13.33;;
19171;SDS011;9718;52.200;21.052;2022-12-18T02:18:01;30.73;;;14.13;;
19171;SDS011;9718;52.200;21.052;2022-12-18T02:20:40;31.97;;;14.10;;
19171;SDS011;9718;52.200;21.052;2022-12-18T02:26:11;30.40;;;12.27;;
19171;SDS011;9718;52.200;21.052;2022-12-18T02:28:58;26.70;;;10.87;;
19171;SDS011;9718;52.200;21.052;2022-12-18T02:31:34;28.87;;;12.30;;
19171;SDS011;9718;52.200;21.052;2022-12-18T02:34:05;32.40;;;14.00;;
19171;SDS011;9718;52.200;21.052;2022-12-18T02:36:35;33.17;;;13.63;;
19171;SDS011;9718;52.200;21.052;2022-12-18T02:39:06;31.33;;;13.43;;
19171;SDS011;9718;52.200;21.052;2022-12-18T02:41:35;27.80;;;10.63;;
19171;SDS011;9718;52.200;21.052;2022-12-18T02:44:06;29.37;;;11.33;;
19171;SDS011;9718;52.200;21.052;2022-12-18T02:46:44;30.00;;;13.40;;
19171;SDS011;9718;52.200;21.052;2022-12-18T02:57:55;25.20;;;9.93;;
19171;SDS011;9718;52.200;21.052;2022-12-18T03:00:31;28.67;;;9.80;;
19171;SDS011;9718;52.200;21.052;2022-12-18T03:03:07;28.00;;;11.60;;
19171;SDS011;9718;52.200;21.052;2022-12-18T03:05:41;33.40;;;12.20;;
19171;SDS011;9718;52.200;21.052;2022-12-18T03:08:24;28.20;;;12.93;;
19171;SDS011;9718;52.200;21.052;2022-12-18T03:11:30;30.53;;;11.97;;
19171;SDS011;9718;52.200;21.052;2022-12-18T03:14:10;25.33;;;8.27;;
19171;SDS011;9718;52.200;21.052;2022-12-18T03:16:42;26.80;;;10.87;;
19171;SDS011;9718;52.200;21.052;2022-12-18T03:19:11;20.07;;;8.30;;
19171;SDS011;9718;52.200;21.052;2022-12-18T03:21:43;25.77;;;9.70;;
19171;SDS011;9718;52.200;21.052;2022-12-18T03:24:14;27.67;;;11.03;;
19171;SDS011;9718;52.200;21.052;2022-12-18T03:26:44;26.93;;;9.93;;
19171;SDS011;9718;52.200;21.052;2022-12-18T03:29:16;27.60;;;9.70;;
19171;SDS011;9718;52.200;21.052;2022-12-18T03:31:49;32.90;;;12.50;;
19171;SDS011;9718;52.200;21.052;2022-12-18T03:34:23;26.63;;;11.80;;
19171;SDS011;9718;52.200;21.052;2022-12-18T03:36:57;32.77;;;12.57;;
19171;SDS011;9718;52.200;21.052;2022-12-18T03:39:24;26.80;;;9.57;;
19171;SDS011;9718;52.200;21.052;2022-12-18T03:44:50;34.73;;;14.53;;
19171;SDS011;9718;52.200;21.052;2022-12-18T03:47:26;35.77;;;13.93;;
19171;SDS011;9718;52.200;21.052;2022-12-18T03:52:57;27.07;;;9.43;;
19171;SDS011;9718;52.200;21.052;2022-12-18T03:55:25;28.67;;;11.43;;
19171;SDS011;9718;52.200;21.052;2022-12-18T03:57:55;33.70;;;14.33;;
19171;SDS011;9718;52.200;21.052;2022-12-18T04:00:25;26.23;;;11.40;;
19171;SDS011;9718;52.200;21.052;2022-12-18T04:02:53;34.63;;;11.57;;
19171;SDS011;9718;52.200;21.052;2022-12-18T04:05:23;36.93;;;13.13;;
19171;SDS011;9718;52.200;21.052;2022-12-18T04:07:52;25.23;;;9.83;;
19171;SDS011;9718;52.200;21.052;2022-12-18T04:10:21;21.93;;;9.17;;
19171;SDS011;9718;52.200;21.052;2022-12-18T04:12:48;27.33;;;11.23;;
19171;SDS011;9718;52.200;21.052;2022-12-18T04:15:15;28.43;;;11.67;;
19171;SDS011;9718;52.200;21.052;2022-12-18T04:17:48;27.97;;;11.27;;
19171;SDS011;9718;52.200;21.052;2022-12-18T04:20:17;28.50;;;12.20;;
19171;SDS011;9718;52.200;21.052;2022-12-18T04:22:44;23.17;;;11.70;;
19171;SDS011;9718;52.200;21.052;2022-12-18T04:25:12;23.10;;;9.43;;
19171;SDS011;9718;52.200;21.052;2022-12-18T04:27:40;23.97;;;9.03;;
19171;SDS011;9718;52.200;21.052;2022-12-18T04:30:07;28.30;;;11.37;;
19171;SDS011;9718;52.200;21.052;2022-12-18T04:32:35;25.63;;;9.83;;
19171;SDS011;9718;52.200;21.052;2022-12-18T04:35:02;31.40;;;10.80;;
19171;SDS011;9718;52.200;21.052;2022-12-18T04:37:30;28.57;;;10.10;;
19171;SDS011;9718;52.200;21.052;2022-12-18T04:39:57;24.10;;;9.60;;
19171;SDS011;9718;52.200;21.052;2022-12-18T04:42:24;26.10;;;9.43;;
19171;SDS011;9718;52.200;21.052;2022-12-18T04:44:51;30.03;;;11.57;;
19171;SDS011;9718;52.200;21.052;2022-12-18T04:47:18;33.83;;;13.93;;
19171;SDS011;9718;52.200;21.052;2022-12-18T04:49:46;20.27;;;7.63;;
19171;SDS011;9718;52.200;21.052;2022-12-18T04:52:13;26.80;;;9.40;;
19171;SDS011;9718;52.200;21.052;2022-12-18T04:54:41;24.17;;;9.40;;
19171;SDS011;9718;52.200;21.052;2022-12-18T04:57:08;28.17;;;11.30;;
19171;SDS011;9718;52.200;21.052;2022-12-18T04:59:36;29.03;;;10.90;;
19171;SDS011;9718;52.200;21.052;2022-12-18T05:02:03;24.27;;;9.50;;
19171;SDS011;9718;52.200;21.052;2022-12-18T05:04:30;25.63;;;10.47;;
19171;SDS011;9718;52.200;21.052;2022-12-18T05:06:57;26.97;;;8.40;;
19171;SDS011;9718;52.200;21.052;2022-12-18T05:09:24;25.17;;;9.90;;
19171;SDS011;9718;52.200;21.052;2022-12-18T05:11:51;26.37;;;8.57;;
19171;SDS011;9718;52.200;21.052;2022-12-18T05:14:18;25.67;;;9.20;;
19171;SDS011;9718;52.200;21.052;2022-12-18T05:16:45;28.30;;;11.60;;
19171;SDS011;9718;52.200;21.052;2022-12-18T05:19:13;25.77;;;11.10;;
19171;SDS011;9718;52.200;21.052;2022-12-18T05:21:40;27.37;;;9.93;;
19171;SDS011;9718;52.200;21.052;2022-12-18T05:24:08;26.77;;;11.07;;
19171;SDS011;9718;52.200;21.052;2022-12-18T05:26:34;25.23;;;9.73;;
19171;SDS011;9718;52.200;21.052;2022-12-18T05:29:02;24.43;;;10.20;;
19171;SDS011;9718;52.200;21.052;2022-12-18T05:31:29;22.00;;;8.07;;
19171;SDS011;9718;52.200;21.052;2022-12-18T05:34:04;23.27;;;8.53;;
19171;SDS011;9718;52.200;21.052;2022-12-18T05:36:32;23.10;;;9.30;;
19171;SDS011;9718;52.200;21.052;2022-12-18T05:38:59;23.03;;;8.00;;
19171;SDS011;9718;52.200;21.052;2022-12-18T05:41:26;19.33;;;7.60;;
19171;SDS011;9718;52.200;21.052;2022-12-18T05:43:54;20.83;;;9.33;;
19171;SDS011;9718;52.200;21.052;2022-12-18T05:46:21;19.73;;;8.73;;
19171;SDS011;9718;52.200;21.052;2022-12-18T05:48:48;29.80;;;9.63;;
19171;SDS011;9718;52.200;21.052;2022-12-18T05:51:17;32.63;;;9.17;;
19171;SDS011;9718;52.200;21.052;2022-12-18T05:53:46;29.57;;;11.03;;
19171;SDS011;9718;52.200;21.052;2022-12-18T05:56:15;27.40;;;10.20;;
19171;SDS011;9718;52.200;21.052;2022-12-18T05:58:44;22.60;;;9.70;;
19171;SDS011;9718;52.200;21.052;2022-12-18T06:01:13;28.43;;;8.90;;
19171;SDS011;9718;52.200;21.052;2022-12-18T06:03:42;27.93;;;11.43;;
19171;SDS011;9718;52.200;21.052;2022-12-18T06:06:14;33.17;;;11.80;;
19171;SDS011;9718;52.200;21.052;2022-12-18T06:08:46;32.50;;;9.20;;
19171;SDS011;9718;52.200;21.052;2022-12-18T06:11:15;20.53;;;8.87;;
19171;SDS011;9718;52.200;21.052;2022-12-18T06:13:44;21.77;;;9.30;;
19171;SDS011;9718;52.200;21.052;2022-12-18T06:16:12;21.83;;;8.47;;
19171;SDS011;9718;52.200;21.052;2022-12-18T06:18:39;20.10;;;6.90;;
19171;SDS011;9718;52.200;21.052;2022-12-18T06:21:06;25.87;;;8.40;;
19171;SDS011;9718;52.200;21.052;2022-12-18T06:23:34;39.37;;;16.53;;
19171;SDS011;9718;52.200;21.052;2022-12-18T06:26:06;33.63;;;11.30;;
19171;SDS011;9718;52.200;21.052;2022-12-18T06:28:34;31.67;;;10.23;;
19171;SDS011;9718;52.200;21.052;2022-12-18T06:31:02;27.93;;;10.80;;
19171;SDS011;9718;52.200;21.052;2022-12-18T06:33:30;30.03;;;11.47;;
19171;SDS011;9718;52.200;21.052;2022-12-18T06:36:01;28.30;;;11.77;;
19171;SDS011;9718;52.200;21.052;2022-12-18T06:38:29;33.83;;;11.40;;
19171;SDS011;9718;52.200;21.052;2022-12-18T06:40:57;39.93;;;12.70;;
19171;SDS011;9718;52.200;21.052;2022-12-18T06:43:24;44.10;;;14.97;;
19171;SDS011;9718;52.200;21.052;2022-12-18T06:45:57;33.70;;;11.47;;
19171;SDS011;9718;52.200;21.052;2022-12-18T06:48:25;36.10;;;13.87;;
19171;SDS011;9718;52.200;21.052;2022-12-18T06:50:53;34.37;;;13.77;;
19171;SDS011;9718;52.200;21.052;2022-12-18T06:53:20;25.97;;;9.97;;
19171;SDS011;9718;52.200;21.052;2022-12-18T06:55:47;46.23;;;15.67;;
19171;SDS011;9718;52.200;21.052;2022-12-18T06:58:15;41.87;;;15.30;;
19171;SDS011;9718;52.200;21.052;2022-12-18T07:00:42;46.80;;;17.87;;
19171;SDS011;9718;52.200;21.052;2022-12-18T07:03:10;36.40;;;12.97;;
19171;SDS011;9718;52.200;21.052;2022-12-18T07:05:40;42.27;;;14.30;;
19171;SDS011;9718;52.200;21.052;2022-12-18T07:08:07;42.37;;;15.33;;
19171;SDS011;9718;52.200;21.052;2022-12-18T07:10:42;42.17;;;13.67;;
19171;SDS011;9718;52.200;21.052;2022-12-18T07:13:13;34.87;;;12.53;;
19171;SDS011;9718;52.200;21.052;2022-12-18T07:15:41;48.93;;;17.17;;
19171;SDS011;9718;52.200;21.052;2022-12-18T07:18:09;39.20;;;13.00;;
19171;SDS011;9718;52.200;21.052;2022-12-18T07:20:36;46.30;;;18.03;;
19171;SDS011;9718;52.200;21.052;2022-12-18T07:23:04;42.93;;;17.53;;
19171;SDS011;9718;52.200;21.052;2022-12-18T07:25:34;36.20;;;13.27;;
19171;SDS011;9718;52.200;21.052;2022-12-18T07:28:02;37.57;;;12.80;;
19171;SDS011;9718;52.200;21.052;2022-12-18T07:30:30;31.57;;;11.33;;
19171;SDS011;9718;52.200;21.052;2022-12-18T07:32:57;32.30;;;11.60;;
19171;SDS011;9718;52.200;21.052;2022-12-18T07:35:24;30.53;;;11.23;;
19171;SDS011;9718;52.200;21.052;2022-12-18T07:37:51;26.97;;;11.33;;
19171;SDS011;9718;52.200;21.052;2022-12-18T07:40:18;29.77;;;13.67;;
19171;SDS011;9718;52.200;21.052;2022-12-18T07:42:45;29.43;;;12.53;;
19171;SDS011;9718;52.200;21.052;2022-12-18T07:45:12;40.53;;;12.80;;
19171;SDS011;9718;52.200;21.052;2022-12-18T07:47:40;37.60;;;13.47;;
19171;SDS011;9718;52.200;21.052;2022-12-18T07:50:07;35.30;;;13.87;;
19171;SDS011;9718;52.200;21.052;2022-12-18T07:52:35;35.67;;;11.73;;
19171;SDS011;9718;52.200;21.052;2022-12-18T07:55:02;35.20;;;14.00;;
19171;SDS011;9718;52.200;21.052;2022-12-18T07:57:30;36.27;;;11.83;;
19171;SDS011;9718;52.200;21.052;2022-12-18T08:00:16;34.43;;;12.80;;
19171;SDS011;9718;52.200;21.052;2022-12-18T08:02:44;34.87;;;13.40;;
19171;SDS011;9718;52.200;21.052;2022-12-18T08:05:11;40.93;;;13.83;;
19171;SDS011;9718;52.200;21.052;2022-12-18T08:07:38;38.27;;;14.03;;
19171;SDS011;9718;52.200;21.052;2022-12-18T08:10:06;47.90;;;16.53;;
19171;SDS011;9718;52.200;21.052;2022-12-18T08:12:33;36.93;;;13.27;;
19171;SDS011;9718;52.200;21.052;2022-12-18T08:15:00;34.70;;;12.53;;
19171;SDS011;9718;52.200;21.052;2022-12-18T08:17:28;38.27;;;14.63;;
19171;SDS011;9718;52.200;21.052;2022-12-18T08:19:55;34.93;;;13.43;;
19171;SDS011;9718;52.200;21.052;2022-12-18T08:22:22;34.97;;;11.90;;
19171;SDS011;9718;52.200;21.052;2022-12-18T08:24:49;33.77;;;12.50;;
19171;SDS011;9718;52.200;21.052;2022-12-18T08:27:16;40.37;;;13.87;;
19171;SDS011;9718;52.200;21.052;2022-12-18T08:29:55;37.67;;;13.53;;
19171;SDS011;9718;52.200;21.052;2022-12-18T08:32:22;42.80;;;13.70;;
19171;SDS011;9718;52.200;21.052;2022-12-18T08:34:50;41.07;;;13.47;;
19171;SDS011;9718;52.200;21.052;2022-12-18T08:37:17;38.50;;;13.63;;
19171;SDS011;9718;52.200;21.052;2022-12-18T08:39:44;39.73;;;17.87;;
19171;SDS011;9718;52.200;21.052;2022-12-18T08:42:12;34.57;;;14.80;;
19171;SDS011;9718;52.200;21.052;2022-12-18T08:44:57;39.43;;;16.37;;
19171;SDS011;9718;52.200;21.052;2022-12-18T08:47:25;38.33;;;15.60;;
19171;SDS011;9718;52.200;21.052;2022-12-18T08:49:52;31.60;;;12.60;;
19171;SDS011;9718;52.200;21.052;2022-12-18T08:52:19;33.43;;;13.30;;
19171;SDS011;9718;52.200;21.052;2022-12-18T08:54:46;35.33;;;11.50;;
19171;SDS011;9718;52.200;21.052;2022-12-18T08:57:13;44.43;;;16.90;;
19171;SDS011;9718;52.200;21.052;2022-12-18T08:59:40;36.93;;;13.83;;
19171;SDS011;9718;52.200;21.052;2022-12-18T09:02:10;38.87;;;13.33;;
19171;SDS011;9718;52.200;21.052;2022-12-18T09:04:38;32.77;;;14.13;;
19171;SDS011;9718;52.200;21.052;2022-12-18T09:07:06;39.10;;;17.77;;
19171;SDS011;9718;52.200;21.052;2022-12-18T09:09:33;37.13;;;14.60;;
19171;SDS011;9718;52.200;21.052;2022-12-18T09:12:00;33.90;;;12.63;;
19171;SDS011;9718;52.200;21.052;2022-12-18T09:14:27;36.63;;;13.40;;
19171;SDS011;9718;52.200;21.052;2022-12-18T09:16:55;42.93;;;13.03;;
19171;SDS011;9718;52.200;21.052;2022-12-18T09:19:22;34.90;;;13.53;;
19171;SDS011;9718;52.200;21.052;2022-12-18T09:21:49;43.20;;;13.67;;
19171;SDS011;9718;52.200;21.052;2022-12-18T09:24:16;30.47;;;12.57;;
19171;SDS011;9718;52.200;21.052;2022-12-18T09:26:43;34.27;;;13.00;;
19171;SDS011;9718;52.200;21.052;2022-12-18T09:29:13;34.90;;;12.67;;
19171;SDS011;9718;52.200;21.052;2022-12-18T09:31:44;38.00;;;15.30;;
19171;SDS011;9718;52.200;21.052;2022-12-18T09:34:11;35.30;;;14.33;;
19171;SDS011;9718;52.200;21.052;2022-12-18T09:36:38;31.13;;;12.60;;
19171;SDS011;9718;52.200;21.052;2022-12-18T09:39:05;33.33;;;13.47;;
19171;SDS011;9718;52.200;21.052;2022-12-18T09:44:12;38.47;;;14.70;;
19171;SDS011;9718;52.200;21.052;2022-12-18T09:49:18;37.80;;;15.87;;
19171;SDS011;9718;52.200;21.052;2022-12-18T09:51:56;37.00;;;14.07;;
19171;SDS011;9718;52.200;21.052;2022-12-18T09:54:44;37.70;;;14.40;;
19171;SDS011;9718;52.200;21.052;2022-12-18T09:57:39;43.27;;;15.37;;
19171;SDS011;9718;52.200;21.052;2022-12-18T10:00:15;37.60;;;15.73;;
19171;SDS011;9718;52.200;21.052;2022-12-18T10:02:45;36.93;;;14.80;;
19171;SDS011;9718;52.200;21.052;2022-12-18T10:05:16;32.87;;;14.87;;
19171;SDS011;9718;52.200;21.052;2022-12-18T10:11:01;40.63;;;14.97;;
19171;SDS011;9718;52.200;21.052;2022-12-18T10:13:46;41.37;;;18.90;;
19171;SDS011;9718;52.200;21.052;2022-12-18T10:16:36;36.20;;;15.20;;
19171;SDS011;9718;52.200;21.052;2022-12-18T10:19:16;48.17;;;18.83;;
19171;SDS011;9718;52.200;21.052;2022-12-18T10:24:45;38.87;;;16.57;;
19171;SDS011;9718;52.200;21.052;2022-12-18T10:27:30;41.17;;;16.00;;
19171;SDS011;9718;52.200;21.052;2022-12-18T10:29:58;42.30;;;16.30;;
19171;SDS011;9718;52.200;21.052;2022-12-18T10:32:28;45.70;;;18.17;;
19171;SDS011;9718;52.200;21.052;2022-12-18T10:34:57;34.77;;;15.23;;
19171;SDS011;9718;52.200;21.052;2022-12-18T10:37:27;41.43;;;17.10;;
19171;SDS011;9718;52.200;21.052;2022-12-18T10:42:49;37.53;;;16.70;;
19171;SDS011;9718;52.200;21.052;2022-12-18T10:45:41;49.67;;;16.77;;
19171;SDS011;9718;52.200;21.052;2022-12-18T10:48:22;38.63;;;15.60;;
19171;SDS011;9718;52.200;21.052;2022-12-18T10:50:51;45.60;;;17.37;;
19171;SDS011;9718;52.200;21.052;2022-12-18T10:53:38;47.07;;;21.03;;
19171;SDS011;9718;52.200;21.052;2022-12-18T10:56:08;39.83;;;15.67;;
19171;SDS011;9718;52.200;21.052;2022-12-18T10:58:36;42.90;;;15.80;;
19171;SDS011;9718;52.200;21.052;2022-12-18T11:01:14;49.07;;;20.90;;
19171;SDS011;9718;52.200;21.052;2022-12-18T11:03:46;41.83;;;16.97;;
19171;SDS011;9718;52.200;21.052;2022-12-18T11:06:23;42.47;;;16.20;;
19171;SDS011;9718;52.200;21.052;2022-12-18T11:09:19;41.50;;;15.60;;
19171;SDS011;9718;52.200;21.052;2022-12-18T11:11:49;42.20;;;15.10;;
19171;SDS011;9718;52.200;21.052;2022-12-18T11:16:50;44.10;;;15.60;;
19171;SDS011;9718;52.200;21.052;2022-12-18T11:19:38;43.40;;;17.40;;
19171;SDS011;9718;52.200;21.052;2022-12-18T11:27:58;48.47;;;17.27;;
19171;SDS011;9718;52.200;21.052;2022-12-18T11:30:46;42.80;;;16.87;;
19171;SDS011;9718;52.200;21.052;2022-12-18T11:33:15;42.80;;;15.60;;
19171;SDS011;9718;52.200;21.052;2022-12-18T11:35:48;40.70;;;15.87;;
19171;SDS011;9718;52.200;21.052;2022-12-18T11:38:26;44.67;;;16.20;;
19171;SDS011;9718;52.200;21.052;2022-12-18T11:40:57;37.80;;;15.60;;
19171;SDS011;9718;52.200;21.052;2022-12-18T11:51:41;36.30;;;15.27;;
19171;SDS011;9718;52.200;21.052;2022-12-18T11:54:15;41.80;;;15.53;;
19171;SDS011;9718;52.200;21.052;2022-12-18T11:56:44;44.70;;;16.10;;
19171;SDS011;9718;52.200;21.052;2022-12-18T12:01:53;43.60;;;16.77;;
19171;SDS011;9718;52.200;21.052;2022-12-18T12:09:56;41.60;;;17.07;;
19171;SDS011;9718;52.200;21.052;2022-12-18T12:12:33;46.77;;;16.57;;
19171;SDS011;9718;52.200;21.052;2022-12-18T12:26:12;50.10;;;16.83;;
19171;SDS011;9718;52.200;21.052;2022-12-18T12:29:04;43.47;;;17.60;;
19171;SDS011;9718;52.200;21.052;2022-12-18T12:34:34;45.37;;;19.30;;
19171;SDS011;9718;52.200;21.052;2022-12-18T12:40:17;49.47;;;17.03;;
19171;SDS011;9718;52.200;21.052;2022-12-18T12:46:09;45.43;;;16.37;;
19171;SDS011;9718;52.200;21.052;2022-12-18T12:48:40;44.10;;;17.13;;
19171;SDS011;9718;52.200;21.052;2022-12-18T12:51:11;42.50;;;15.10;;
19171;SDS011;9718;52.200;21.052;2022-12-18T12:53:55;44.50;;;17.17;;
19171;SDS011;9718;52.200;21.052;2022-12-18T12:56:24;42.40;;;14.97;;
19171;SDS011;9718;52.200;21.052;2022-12-18T13:09:31;52.37;;;16.63;;
19171;SDS011;9718;52.200;21.052;2022-12-18T13:12:03;50.67;;;19.20;;
19171;SDS011;9718;52.200;21.052;2022-12-18T13:14:50;48.07;;;18.53;;
19171;SDS011;9718;52.200;21.052;2022-12-18T13:19:49;44.40;;;17.20;;
19171;SDS011;9718;52.200;21.052;2022-12-18T13:22:37;47.60;;;18.03;;
19171;SDS011;9718;52.200;21.052;2022-12-18T13:48:53;37.63;;;14.40;;
19171;SDS011;9718;52.200;21.052;2022-12-18T13:51:22;38.80;;;15.20;;
19171;SDS011;9718;52.200;21.052;2022-12-18T13:56:24;47.33;;;15.93;;
19171;SDS011;9718;52.200;21.052;2022-12-18T14:02:26;41.10;;;17.73;;
19171;SDS011;9718;52.200;21.052;2022-12-18T14:04:53;41.93;;;16.93;;
19171;SDS011;9718;52.200;21.052;2022-12-18T14:07:22;39.87;;;16.43;;
19171;SDS011;9718;52.200;21.052;2022-12-18T14:09:57;42.80;;;16.10;;
19171;SDS011;9718;52.200;21.052;2022-12-18T14:12:47;44.53;;;16.37;;
19171;SDS011;9718;52.200;21.052;2022-12-18T14:15:31;45.27;;;17.10;;
19171;SDS011;9718;52.200;21.052;2022-12-18T14:18:02;47.73;;;15.80;;
19171;SDS011;9718;52.200;21.052;2022-12-18T14:20:31;45.20;;;18.23;;
19171;SDS011;9718;52.200;21.052;2022-12-18T14:22:59;42.60;;;16.90;;
19171;SDS011;9718;52.200;21.052;2022-12-18T14:25:27;41.33;;;14.50;;
19171;SDS011;9718;52.200;21.052;2022-12-18T14:30:35;42.80;;;15.67;;
19171;SDS011;9718;52.200;21.052;2022-12-18T14:33:09;44.27;;;15.97;;
19171;SDS011;9718;52.200;21.052;2022-12-18T14:38:26;40.87;;;14.90;;
19171;SDS011;9718;52.200;21.052;2022-12-18T14:41:02;35.20;;;14.40;;
19171;SDS011;9718;52.200;21.052;2022-12-18T14:43:32;38.57;;;14.63;;
19171;SDS011;9718;52.200;21.052;2022-12-18T14:46:00;41.80;;;15.33;;
19171;SDS011;9718;52.200;21.052;2022-12-18T14:51:00;40.00;;;14.50;;
19171;SDS011;9718;52.200;21.052;2022-12-18T14:54:01;44.00;;;13.67;;
19171;SDS011;9718;52.200;21.052;2022-12-18T14:56:31;41.30;;;16.40;;
19171;SDS011;9718;52.200;21.052;2022-12-18T14:59:04;42.40;;;16.10;;
19171;SDS011;9718;52.200;21.052;2022-12-18T15:07:11;40.23;;;14.57;;
19171;SDS011;9718;52.200;21.052;2022-12-18T15:12:34;43.10;;;16.70;;
19171;SDS011;9718;52.200;21.052;2022-12-18T15:15:02;49.13;;;17.80;;
19171;SDS011;9718;52.200;21.052;2022-12-18T15:17:31;40.30;;;15.93;;
19171;SDS011;9718;52.200;21.052;2022-12-18T15:20:00;45.90;;;17.43;;
19171;SDS011;9718;52.200;21.052;2022-12-18T15:22:34;65.27;;;16.60;;
19171;SDS011;9718;52.200;21.052;2022-12-18T15:25:03;41.80;;;17.73;;
19171;SDS011;9718;52.200;21.052;2022-12-18T15:27:58;36.90;;;15.80;;
19171;SDS011;9718;52.200;21.052;2022-12-18T15:30:25;40.23;;;14.13;;
19171;SDS011;9718;52.200;21.052;2022-12-18T15:32:52;33.40;;;12.10;;
19171;SDS011;9718;52.200;21.052;2022-12-18T15:35:47;36.07;;;13.40;;
19171;SDS011;9718;52.200;21.052;2022-12-18T15:38:26;40.17;;;15.70;;
19171;SDS011;9718;52.200;21.052;2022-12-18T15:40:53;42.10;;;14.17;;
19171;SDS011;9718;52.200;21.052;2022-12-18T15:43:22;41.30;;;15.03;;
19171;SDS011;9718;52.200;21.052;2022-12-18T15:46:04;51.47;;;16.10;;
19171;SDS011;9718;52.200;21.052;2022-12-18T15:48:34;36.40;;;14.63;;
19171;SDS011;9718;52.200;21.052;2022-12-18T15:51:04;38.10;;;16.03;;
19171;SDS011;9718;52.200;21.052;2022-12-18T15:53:34;50.30;;;17.77;;
19171;SDS011;9718;52.200;21.052;2022-12-18T15:56:02;46.07;;;17.47;;
19171;SDS011;9718;52.200;21.052;2022-12-18T15:58:47;36.27;;;14.13;;
19171;SDS011;9718;52.200;21.052;2022-12-18T16:01:15;37.70;;;15.37;;
19171;SDS011;9718;52.200;21.052;2022-12-18T16:03:45;36.87;;;15.17;;
19171;SDS011;9718;52.200;21.052;2022-12-18T16:06:12;36.47;;;16.57;;
19171;SDS011;9718;52.200;21.052;2022-12-18T16:08:39;39.23;;;12.60;;
19171;SDS011;9718;52.200;21.052;2022-12-18T16:11:27;32.87;;;12.60;;
19171;SDS011;9718;52.200;21.052;2022-12-18T16:14:18;33.67;;;13.90;;
19171;SDS011;9718;52.200;21.052;2022-12-18T16:16:46;38.13;;;13.13;;
19171;SDS011;9718;52.200;21.052;2022-12-18T16:19:15;41.73;;;13.90;;
19171;SDS011;9718;52.200;21.052;2022-12-18T16:21:43;35.23;;;12.67;;
19171;SDS011;9718;52.200;21.052;2022-12-18T16:24:31;37.73;;;14.00;;
19171;SDS011;9718;52.200;21.052;2022-12-18T16:27:00;41.53;;;13.87;;
19171;SDS011;9718;52.200;21.052;2022-12-18T16:29:27;34.37;;;13.23;;
19171;SDS011;9718;52.200;21.052;2022-12-18T16:31:56;33.37;;;12.80;;
19171;SDS011;9718;52.200;21.052;2022-12-18T16:37:05;38.57;;;13.97;;
19171;SDS011;9718;52.200;21.052;2022-12-18T16:39:33;35.27;;;13.50;;
19171;SDS011;9718;52.200;21.052;2022-12-18T16:42:02;43.23;;;13.70;;
19171;SDS011;9718;52.200;21.052;2022-12-18T16:44:34;37.47;;;14.23;;
19171;SDS011;9718;52.200;21.052;2022-12-18T16:47:03;35.67;;;14.50;;
19171;SDS011;9718;52.200;21.052;2022-12-18T16:49:31;42.10;;;14.43;;
19171;SDS011;9718;52.200;21.052;2022-12-18T16:51:59;32.33;;;14.23;;
19171;SDS011;9718;52.200;21.052;2022-12-18T16:54:27;34.93;;;14.17;;
19171;SDS011;9718;52.200;21.052;2022-12-18T16:56:56;36.93;;;12.93;;
19171;SDS011;9718;52.200;21.052;2022-12-18T16:59:23;41.63;;;13.70;;
19171;SDS011;9718;52.200;21.052;2022-12-18T17:01:52;41.83;;;16.47;;
19171;SDS011;9718;52.200;21.052;2022-12-18T17:04:21;35.40;;;13.43;;
19171;SDS011;9718;52.200;21.052;2022-12-18T17:06:49;43.60;;;14.53;;
19171;SDS011;9718;52.200;21.052;2022-12-18T17:09:18;35.37;;;15.47;;